sensor_id;sensor_type;location;lat;lon;timestamp;P1;durP1;ratioP1;P2;durP2;ratioP2
4202;SDS011;2115;51.038;7.006;2022-12-05T00:00:34;480.80;;;107.20;;
4202;SDS011;2115;51.038;7.006;2022-12-05T00:03:03;482.10;;;106.80;;
4202;SDS011;2115;51.038;7.006;2022-12-05T00:05:29;506.43;;;114.07;;
4202;SDS011;2115;51.038;7.006;2022-12-05T00:07:54;487.00;;;109.97;;
4202;SDS011;2115;51.038;7.006;2022-12-05T00:10:20;475.77;;;106.97;;
4202;SDS011;2115;51.038;7.006;2022-12-05T00:12:46;478.97;;;106.27;;
4202;SDS011;2115;51.038;7.006;2022-12-05T00:15:11;491.17;;;113.03;;
4202;SDS011;2115;51.038;7.006;2022-12-05T00:17:37;483.07;;;107.77;;
4202;SDS011;2115;51.038;7.006;2022-12-05T00:20:04;480.47;;;107.60;;
4202;SDS011;2115;51.038;7.006;2022-12-05T00:22:30;469.17;;;104.70;;
4202;SDS011;2115;51.038;7.006;2022-12-05T00:24:56;476.53;;;106.33;;
4202;SDS011;2115;51.038;7.006;2022-12-05T00:27:21;469.87;;;104.80;;
4202;SDS011;2115;51.038;7.006;2022-12-05T00:29:48;478.10;;;108.70;;
4202;SDS011;2115;51.038;7.006;2022-12-05T00:32:13;484.80;;;109.30;;
4202;SDS011;2115;51.038;7.006;2022-12-05T00:34:38;472.10;;;106.07;;
4202;SDS011;2115;51.038;7.006;2022-12-05T00:37:04;490.73;;;109.83;;
4202;SDS011;2115;51.038;7.006;2022-12-05T00:39:29;478.13;;;108.00;;
4202;SDS011;2115;51.038;7.006;2022-12-05T00:41:54;478.83;;;107.50;;
4202;SDS011;2115;51.038;7.006;2022-12-05T00:44:20;473.20;;;107.50;;
4202;SDS011;2115;51.038;7.006;2022-12-05T00:46:45;469.40;;;104.70;;
4202;SDS011;2115;51.038;7.006;2022-12-05T00:49:10;469.13;;;105.13;;
4202;SDS011;2115;51.038;7.006;2022-12-05T00:51:38;469.70;;;105.77;;
4202;SDS011;2115;51.038;7.006;2022-12-05T00:54:06;476.03;;;109.17;;
4202;SDS011;2115;51.038;7.006;2022-12-05T00:56:33;492.67;;;112.47;;
4202;SDS011;2115;51.038;7.006;2022-12-05T00:58:59;474.37;;;108.63;;
4202;SDS011;2115;51.038;7.006;2022-12-05T01:03:53;475.77;;;107.80;;
4202;SDS011;2115;51.038;7.006;2022-12-05T01:06:20;475.00;;;105.07;;
4202;SDS011;2115;51.038;7.006;2022-12-05T01:08:47;481.93;;;110.50;;
4202;SDS011;2115;51.038;7.006;2022-12-05T01:11:16;463.13;;;103.40;;
4202;SDS011;2115;51.038;7.006;2022-12-05T01:13:42;492.90;;;111.50;;
4202;SDS011;2115;51.038;7.006;2022-12-05T01:16:15;468.50;;;104.40;;
4202;SDS011;2115;51.038;7.006;2022-12-05T01:18:46;476.43;;;108.73;;
4202;SDS011;2115;51.038;7.006;2022-12-05T01:21:12;465.97;;;104.87;;
4202;SDS011;2115;51.038;7.006;2022-12-05T01:23:38;466.57;;;104.70;;
4202;SDS011;2115;51.038;7.006;2022-12-05T01:26:04;470.13;;;105.83;;
4202;SDS011;2115;51.038;7.006;2022-12-05T01:28:31;487.97;;;110.67;;
4202;SDS011;2115;51.038;7.006;2022-12-05T01:30:57;492.50;;;110.50;;
4202;SDS011;2115;51.038;7.006;2022-12-05T01:33:22;498.87;;;113.60;;
4202;SDS011;2115;51.038;7.006;2022-12-05T01:35:48;503.87;;;113.60;;
4202;SDS011;2115;51.038;7.006;2022-12-05T01:38:13;525.63;;;119.93;;
4202;SDS011;2115;51.038;7.006;2022-12-05T01:40:39;519.70;;;116.83;;
4202;SDS011;2115;51.038;7.006;2022-12-05T01:43:13;519.40;;;116.87;;
4202;SDS011;2115;51.038;7.006;2022-12-05T01:45:40;528.90;;;120.20;;
4202;SDS011;2115;51.038;7.006;2022-12-05T01:48:08;519.60;;;116.13;;
4202;SDS011;2115;51.038;7.006;2022-12-05T01:50:39;519.50;;;116.30;;
4202;SDS011;2115;51.038;7.006;2022-12-05T01:53:05;516.27;;;114.03;;
4202;SDS011;2115;51.038;7.006;2022-12-05T01:55:30;525.70;;;116.80;;
4202;SDS011;2115;51.038;7.006;2022-12-05T01:57:56;516.53;;;115.27;;
4202;SDS011;2115;51.038;7.006;2022-12-05T02:00:22;516.50;;;115.13;;
4202;SDS011;2115;51.038;7.006;2022-12-05T02:02:50;517.27;;;114.97;;
4202;SDS011;2115;51.038;7.006;2022-12-05T02:05:32;520.20;;;117.50;;
4202;SDS011;2115;51.038;7.006;2022-12-05T02:07:59;511.40;;;114.30;;
4202;SDS011;2115;51.038;7.006;2022-12-05T02:10:27;521.57;;;117.50;;
4202;SDS011;2115;51.038;7.006;2022-12-05T02:12:55;517.13;;;114.63;;
4202;SDS011;2115;51.038;7.006;2022-12-05T02:15:48;512.60;;;115.17;;
4202;SDS011;2115;51.038;7.006;2022-12-05T02:35:08;507.37;;;114.33;;
4202;SDS011;2115;51.038;7.006;2022-12-05T02:40:49;512.57;;;115.03;;
4202;SDS011;2115;51.038;7.006;2022-12-05T02:46:20;514.27;;;115.10;;
4202;SDS011;2115;51.038;7.006;2022-12-05T02:48:46;515.80;;;114.40;;
4202;SDS011;2115;51.038;7.006;2022-12-05T02:51:15;518.90;;;116.93;;
4202;SDS011;2115;51.038;7.006;2022-12-05T02:53:43;524.63;;;117.20;;
4202;SDS011;2115;51.038;7.006;2022-12-05T02:56:09;519.70;;;116.60;;
4202;SDS011;2115;51.038;7.006;2022-12-05T02:58:37;527.03;;;116.00;;
4202;SDS011;2115;51.038;7.006;2022-12-05T03:01:06;521.87;;;117.47;;
4202;SDS011;2115;51.038;7.006;2022-12-05T03:03:32;514.57;;;115.10;;
4202;SDS011;2115;51.038;7.006;2022-12-05T03:08:27;520.73;;;116.17;;
4202;SDS011;2115;51.038;7.006;2022-12-05T03:10:56;521.77;;;116.73;;
4202;SDS011;2115;51.038;7.006;2022-12-05T03:13:24;516.10;;;115.30;;
4202;SDS011;2115;51.038;7.006;2022-12-05T03:15:52;531.07;;;120.80;;
4202;SDS011;2115;51.038;7.006;2022-12-05T03:18:28;521.10;;;115.70;;
4202;SDS011;2115;51.038;7.006;2022-12-05T03:20:57;540.67;;;124.03;;
4202;SDS011;2115;51.038;7.006;2022-12-05T03:23:30;527.93;;;119.80;;
4202;SDS011;2115;51.038;7.006;2022-12-05T03:26:04;533.83;;;121.87;;
4202;SDS011;2115;51.038;7.006;2022-12-05T03:28:55;519.50;;;114.97;;
4202;SDS011;2115;51.038;7.006;2022-12-05T03:31:31;518.60;;;117.07;;
4202;SDS011;2115;51.038;7.006;2022-12-05T03:34:19;522.63;;;118.57;;
4202;SDS011;2115;51.038;7.006;2022-12-05T03:36:51;544.60;;;126.73;;
4202;SDS011;2115;51.038;7.006;2022-12-05T03:39:20;511.93;;;113.57;;
4202;SDS011;2115;51.038;7.006;2022-12-05T03:42:00;524.20;;;116.90;;
4202;SDS011;2115;51.038;7.006;2022-12-05T03:44:49;516.27;;;113.80;;
4202;SDS011;2115;51.038;7.006;2022-12-05T03:47:25;519.23;;;118.50;;
4202;SDS011;2115;51.038;7.006;2022-12-05T03:49:58;512.13;;;114.07;;
4202;SDS011;2115;51.038;7.006;2022-12-05T03:53:02;514.23;;;114.70;;
4202;SDS011;2115;51.038;7.006;2022-12-05T03:55:34;510.13;;;113.40;;
4202;SDS011;2115;51.038;7.006;2022-12-05T03:58:05;507.47;;;112.00;;
4202;SDS011;2115;51.038;7.006;2022-12-05T04:00:34;508.93;;;113.50;;
4202;SDS011;2115;51.038;7.006;2022-12-05T04:03:06;515.57;;;115.03;;
4202;SDS011;2115;51.038;7.006;2022-12-05T04:05:42;512.50;;;114.57;;
4202;SDS011;2115;51.038;7.006;2022-12-05T04:08:12;515.60;;;115.40;;
4202;SDS011;2115;51.038;7.006;2022-12-05T04:11:00;507.93;;;113.07;;
4202;SDS011;2115;51.038;7.006;2022-12-05T04:15:57;508.63;;;112.43;;
4202;SDS011;2115;51.038;7.006;2022-12-05T04:18:52;514.57;;;115.93;;
4202;SDS011;2115;51.038;7.006;2022-12-05T04:21:23;504.30;;;112.87;;
4202;SDS011;2115;51.038;7.006;2022-12-05T04:24:02;507.93;;;113.40;;
4202;SDS011;2115;51.038;7.006;2022-12-05T04:26:52;510.03;;;113.80;;
4202;SDS011;2115;51.038;7.006;2022-12-05T04:32:29;503.37;;;111.10;;
4202;SDS011;2115;51.038;7.006;2022-12-05T04:35:18;512.17;;;113.07;;
4202;SDS011;2115;51.038;7.006;2022-12-05T04:37:48;507.03;;;113.07;;
4202;SDS011;2115;51.038;7.006;2022-12-05T04:40:20;502.57;;;111.03;;
4202;SDS011;2115;51.038;7.006;2022-12-05T04:42:49;511.77;;;116.20;;
4202;SDS011;2115;51.038;7.006;2022-12-05T04:45:16;501.60;;;110.60;;
4202;SDS011;2115;51.038;7.006;2022-12-05T04:47:44;506.83;;;113.33;;
4202;SDS011;2115;51.038;7.006;2022-12-05T04:50:12;501.33;;;108.77;;
4202;SDS011;2115;51.038;7.006;2022-12-05T04:52:38;500.97;;;108.37;;
4202;SDS011;2115;51.038;7.006;2022-12-05T04:55:07;497.33;;;111.57;;
4202;SDS011;2115;51.038;7.006;2022-12-05T04:57:36;495.93;;;109.87;;
4202;SDS011;2115;51.038;7.006;2022-12-05T05:00:03;494.70;;;108.80;;
4202;SDS011;2115;51.038;7.006;2022-12-05T05:02:34;495.67;;;109.90;;
4202;SDS011;2115;51.038;7.006;2022-12-05T05:05:03;492.20;;;110.00;;
4202;SDS011;2115;51.038;7.006;2022-12-05T05:07:32;485.13;;;107.07;;
4202;SDS011;2115;51.038;7.006;2022-12-05T05:10:07;486.20;;;106.63;;
4202;SDS011;2115;51.038;7.006;2022-12-05T05:12:33;486.23;;;107.40;;
4202;SDS011;2115;51.038;7.006;2022-12-05T05:14:58;478.97;;;106.17;;
4202;SDS011;2115;51.038;7.006;2022-12-05T05:17:24;487.20;;;108.50;;
4202;SDS011;2115;51.038;7.006;2022-12-05T05:19:49;490.73;;;110.13;;
4202;SDS011;2115;51.038;7.006;2022-12-05T05:22:14;483.70;;;106.30;;
4202;SDS011;2115;51.038;7.006;2022-12-05T05:24:39;489.27;;;111.00;;
4202;SDS011;2115;51.038;7.006;2022-12-05T05:27:05;483.37;;;107.07;;
4202;SDS011;2115;51.038;7.006;2022-12-05T05:29:30;503.93;;;114.07;;
4202;SDS011;2115;51.038;7.006;2022-12-05T05:31:55;483.00;;;105.80;;
4202;SDS011;2115;51.038;7.006;2022-12-05T05:34:21;478.60;;;106.10;;
4202;SDS011;2115;51.038;7.006;2022-12-05T05:36:50;467.50;;;102.60;;
4202;SDS011;2115;51.038;7.006;2022-12-05T05:39:16;459.00;;;99.80;;
4202;SDS011;2115;51.038;7.006;2022-12-05T05:41:41;461.47;;;103.37;;
4202;SDS011;2115;51.038;7.006;2022-12-05T05:44:07;452.13;;;97.73;;
4202;SDS011;2115;51.038;7.006;2022-12-05T05:46:33;458.93;;;101.07;;
4202;SDS011;2115;51.038;7.006;2022-12-05T05:48:59;451.47;;;98.50;;
4202;SDS011;2115;51.038;7.006;2022-12-05T05:51:25;457.53;;;100.60;;
4202;SDS011;2115;51.038;7.006;2022-12-05T05:53:52;458.40;;;100.30;;
4202;SDS011;2115;51.038;7.006;2022-12-05T05:56:18;453.53;;;99.70;;
4202;SDS011;2115;51.038;7.006;2022-12-05T05:58:44;458.53;;;100.10;;
4202;SDS011;2115;51.038;7.006;2022-12-05T06:01:11;452.13;;;97.03;;
4202;SDS011;2115;51.038;7.006;2022-12-05T06:03:41;461.27;;;101.40;;
4202;SDS011;2115;51.038;7.006;2022-12-05T06:06:08;456.93;;;99.23;;
4202;SDS011;2115;51.038;7.006;2022-12-05T06:08:36;452.70;;;99.00;;
4202;SDS011;2115;51.038;7.006;2022-12-05T06:11:12;452.10;;;98.97;;
4202;SDS011;2115;51.038;7.006;2022-12-05T06:13:40;457.30;;;100.43;;
4202;SDS011;2115;51.038;7.006;2022-12-05T06:16:06;453.47;;;100.30;;
4202;SDS011;2115;51.038;7.006;2022-12-05T06:18:33;452.73;;;98.93;;
4202;SDS011;2115;51.038;7.006;2022-12-05T06:20:59;460.20;;;100.67;;
4202;SDS011;2115;51.038;7.006;2022-12-05T06:23:25;466.73;;;103.73;;
4202;SDS011;2115;51.038;7.006;2022-12-05T06:25:53;457.70;;;101.00;;
4202;SDS011;2115;51.038;7.006;2022-12-05T06:28:19;458.13;;;101.37;;
4202;SDS011;2115;51.038;7.006;2022-12-05T06:30:46;467.07;;;104.80;;
4202;SDS011;2115;51.038;7.006;2022-12-05T06:33:12;456.43;;;101.03;;
4202;SDS011;2115;51.038;7.006;2022-12-05T06:35:40;457.03;;;101.63;;
4202;SDS011;2115;51.038;7.006;2022-12-05T06:38:07;453.90;;;100.00;;
4202;SDS011;2115;51.038;7.006;2022-12-05T06:40:32;459.17;;;101.70;;
4202;SDS011;2115;51.038;7.006;2022-12-05T06:42:58;454.27;;;98.60;;
4202;SDS011;2115;51.038;7.006;2022-12-05T06:45:23;454.57;;;101.50;;
4202;SDS011;2115;51.038;7.006;2022-12-05T06:47:52;454.80;;;100.40;;
4202;SDS011;2115;51.038;7.006;2022-12-05T06:50:18;455.57;;;99.20;;
4202;SDS011;2115;51.038;7.006;2022-12-05T06:52:43;459.27;;;101.87;;
4202;SDS011;2115;51.038;7.006;2022-12-05T06:55:09;459.37;;;100.57;;
4202;SDS011;2115;51.038;7.006;2022-12-05T06:57:34;465.87;;;101.97;;
4202;SDS011;2115;51.038;7.006;2022-12-05T06:59:59;478.40;;;108.90;;
4202;SDS011;2115;51.038;7.006;2022-12-05T07:02:45;470.10;;;103.87;;
4202;SDS011;2115;51.038;7.006;2022-12-05T07:05:10;466.83;;;101.57;;
4202;SDS011;2115;51.038;7.006;2022-12-05T07:07:36;469.63;;;102.80;;
4202;SDS011;2115;51.038;7.006;2022-12-05T07:10:02;484.90;;;107.83;;
4202;SDS011;2115;51.038;7.006;2022-12-05T07:12:28;477.20;;;103.50;;
4202;SDS011;2115;51.038;7.006;2022-12-05T07:14:53;468.10;;;102.27;;
4202;SDS011;2115;51.038;7.006;2022-12-05T07:17:19;468.90;;;102.90;;
4202;SDS011;2115;51.038;7.006;2022-12-05T07:19:49;476.10;;;105.70;;
4202;SDS011;2115;51.038;7.006;2022-12-05T07:22:15;477.60;;;106.60;;
4202;SDS011;2115;51.038;7.006;2022-12-05T07:24:41;498.33;;;114.83;;
4202;SDS011;2115;51.038;7.006;2022-12-05T07:27:07;476.00;;;106.27;;
4202;SDS011;2115;51.038;7.006;2022-12-05T07:29:32;482.37;;;106.97;;
4202;SDS011;2115;51.038;7.006;2022-12-05T07:31:58;477.30;;;103.27;;
4202;SDS011;2115;51.038;7.006;2022-12-05T07:34:23;488.63;;;108.93;;
4202;SDS011;2115;51.038;7.006;2022-12-05T07:36:48;470.03;;;102.53;;
4202;SDS011;2115;51.038;7.006;2022-12-05T07:39:14;476.17;;;102.20;;
4202;SDS011;2115;51.038;7.006;2022-12-05T07:41:40;478.17;;;103.67;;
4202;SDS011;2115;51.038;7.006;2022-12-05T07:44:06;479.60;;;107.07;;
4202;SDS011;2115;51.038;7.006;2022-12-05T07:46:33;490.87;;;108.17;;
4202;SDS011;2115;51.038;7.006;2022-12-05T07:48:58;487.67;;;109.20;;
4202;SDS011;2115;51.038;7.006;2022-12-05T07:51:24;498.13;;;114.93;;
4202;SDS011;2115;51.038;7.006;2022-12-05T07:53:49;488.27;;;108.33;;
4202;SDS011;2115;51.038;7.006;2022-12-05T07:56:15;472.10;;;104.90;;
4202;SDS011;2115;51.038;7.006;2022-12-05T07:58:42;475.10;;;105.30;;
4202;SDS011;2115;51.038;7.006;2022-12-05T08:01:18;473.90;;;104.67;;
4202;SDS011;2115;51.038;7.006;2022-12-05T08:03:48;479.53;;;105.10;;
4202;SDS011;2115;51.038;7.006;2022-12-05T08:06:18;489.13;;;110.73;;
4202;SDS011;2115;51.038;7.006;2022-12-05T08:08:45;493.80;;;111.97;;
4202;SDS011;2115;51.038;7.006;2022-12-05T08:11:14;483.30;;;106.50;;
4202;SDS011;2115;51.038;7.006;2022-12-05T08:13:42;482.83;;;106.40;;
4202;SDS011;2115;51.038;7.006;2022-12-05T08:16:11;475.20;;;106.50;;
4202;SDS011;2115;51.038;7.006;2022-12-05T08:18:38;473.70;;;104.07;;
4202;SDS011;2115;51.038;7.006;2022-12-05T08:21:05;470.90;;;103.93;;
4202;SDS011;2115;51.038;7.006;2022-12-05T08:23:31;470.37;;;102.93;;
4202;SDS011;2115;51.038;7.006;2022-12-05T08:26:08;469.73;;;103.07;;
4202;SDS011;2115;51.038;7.006;2022-12-05T08:28:35;469.90;;;103.03;;
4202;SDS011;2115;51.038;7.006;2022-12-05T08:31:07;462.30;;;100.53;;
4202;SDS011;2115;51.038;7.006;2022-12-05T08:33:33;471.10;;;103.60;;
4202;SDS011;2115;51.038;7.006;2022-12-05T08:35:59;471.93;;;104.83;;
4202;SDS011;2115;51.038;7.006;2022-12-05T08:38:26;464.87;;;101.23;;
4202;SDS011;2115;51.038;7.006;2022-12-05T08:40:51;468.17;;;102.10;;
4202;SDS011;2115;51.038;7.006;2022-12-05T08:43:17;471.37;;;102.97;;
4202;SDS011;2115;51.038;7.006;2022-12-05T08:45:48;473.17;;;102.80;;
4202;SDS011;2115;51.038;7.006;2022-12-05T08:48:14;472.60;;;103.03;;
4202;SDS011;2115;51.038;7.006;2022-12-05T08:50:39;471.70;;;104.20;;
4202;SDS011;2115;51.038;7.006;2022-12-05T08:53:04;460.80;;;100.90;;
4202;SDS011;2115;51.038;7.006;2022-12-05T08:55:30;466.10;;;101.80;;
4202;SDS011;2115;51.038;7.006;2022-12-05T08:57:58;470.57;;;101.97;;
4202;SDS011;2115;51.038;7.006;2022-12-05T09:00:23;482.87;;;106.07;;
4202;SDS011;2115;51.038;7.006;2022-12-05T09:02:49;478.80;;;105.33;;
4202;SDS011;2115;51.038;7.006;2022-12-05T09:05:15;477.07;;;104.67;;
4202;SDS011;2115;51.038;7.006;2022-12-05T09:07:41;479.60;;;105.03;;
4202;SDS011;2115;51.038;7.006;2022-12-05T09:10:07;482.67;;;108.17;;
4202;SDS011;2115;51.038;7.006;2022-12-05T09:12:34;480.03;;;109.50;;
4202;SDS011;2115;51.038;7.006;2022-12-05T09:15:00;482.07;;;107.87;;
4202;SDS011;2115;51.038;7.006;2022-12-05T09:17:25;471.90;;;103.77;;
4202;SDS011;2115;51.038;7.006;2022-12-05T09:19:51;479.77;;;104.90;;
4202;SDS011;2115;51.038;7.006;2022-12-05T09:22:17;478.57;;;104.70;;
4202;SDS011;2115;51.038;7.006;2022-12-05T09:24:42;478.10;;;104.73;;
4202;SDS011;2115;51.038;7.006;2022-12-05T09:27:08;480.97;;;106.60;;
4202;SDS011;2115;51.038;7.006;2022-12-05T09:29:33;482.97;;;105.00;;
4202;SDS011;2115;51.038;7.006;2022-12-05T09:31:58;491.27;;;109.47;;
4202;SDS011;2115;51.038;7.006;2022-12-05T09:34:24;494.80;;;109.10;;
4202;SDS011;2115;51.038;7.006;2022-12-05T09:36:50;491.80;;;108.30;;
4202;SDS011;2115;51.038;7.006;2022-12-05T09:39:16;489.40;;;106.83;;
4202;SDS011;2115;51.038;7.006;2022-12-05T09:47:21;501.20;;;111.20;;
4202;SDS011;2115;51.038;7.006;2022-12-05T09:52:43;494.40;;;108.83;;
4202;SDS011;2115;51.038;7.006;2022-12-05T09:55:15;501.60;;;110.93;;
4202;SDS011;2115;51.038;7.006;2022-12-05T09:57:44;498.87;;;111.80;;
4202;SDS011;2115;51.038;7.006;2022-12-05T10:00:13;503.03;;;110.70;;
4202;SDS011;2115;51.038;7.006;2022-12-05T10:05:18;502.27;;;110.80;;
4202;SDS011;2115;51.038;7.006;2022-12-05T10:08:10;506.13;;;111.90;;
4202;SDS011;2115;51.038;7.006;2022-12-05T10:16:12;503.30;;;110.27;;
4202;SDS011;2115;51.038;7.006;2022-12-05T10:18:55;503.97;;;110.73;;
4202;SDS011;2115;51.038;7.006;2022-12-05T10:21:30;507.23;;;115.87;;
4202;SDS011;2115;51.038;7.006;2022-12-05T10:23:58;495.10;;;108.53;;
4202;SDS011;2115;51.038;7.006;2022-12-05T10:26:29;499.67;;;109.97;;
4202;SDS011;2115;51.038;7.006;2022-12-05T10:31:41;499.10;;;111.43;;
4202;SDS011;2115;51.038;7.006;2022-12-05T10:34:14;494.70;;;109.50;;
4202;SDS011;2115;51.038;7.006;2022-12-05T10:37:27;498.53;;;108.10;;
4202;SDS011;2115;51.038;7.006;2022-12-05T10:39:40;501.67;;;111.03;;
4202;SDS011;2115;51.038;7.006;2022-12-05T10:42:08;493.73;;;109.50;;
4202;SDS011;2115;51.038;7.006;2022-12-05T10:44:36;492.47;;;109.17;;
4202;SDS011;2115;51.038;7.006;2022-12-05T10:47:02;491.37;;;107.17;;
4202;SDS011;2115;51.038;7.006;2022-12-05T10:49:27;500.43;;;111.33;;
4202;SDS011;2115;51.038;7.006;2022-12-05T10:51:53;493.57;;;110.10;;
4202;SDS011;2115;51.038;7.006;2022-12-05T10:54:25;492.60;;;110.40;;
4202;SDS011;2115;51.038;7.006;2022-12-05T10:56:53;492.20;;;109.67;;
4202;SDS011;2115;51.038;7.006;2022-12-05T10:59:22;502.73;;;110.13;;
4202;SDS011;2115;51.038;7.006;2022-12-05T11:01:50;510.97;;;113.80;;
4202;SDS011;2115;51.038;7.006;2022-12-05T11:09:26;507.60;;;113.83;;
4202;SDS011;2115;51.038;7.006;2022-12-05T11:12:13;511.80;;;114.80;;
4202;SDS011;2115;51.038;7.006;2022-12-05T11:14:53;510.13;;;115.50;;
4202;SDS011;2115;51.038;7.006;2022-12-05T11:17:33;507.17;;;115.27;;
4202;SDS011;2115;51.038;7.006;2022-12-05T11:20:00;509.07;;;115.13;;
4202;SDS011;2115;51.038;7.006;2022-12-05T11:22:30;508.23;;;114.90;;
4202;SDS011;2115;51.038;7.006;2022-12-05T11:24:59;511.17;;;115.73;;
4202;SDS011;2115;51.038;7.006;2022-12-05T11:27:26;509.60;;;115.73;;
4202;SDS011;2115;51.038;7.006;2022-12-05T11:32:51;512.23;;;117.60;;
4202;SDS011;2115;51.038;7.006;2022-12-05T11:35:35;519.43;;;118.87;;
4202;SDS011;2115;51.038;7.006;2022-12-05T11:38:02;517.00;;;116.60;;
4202;SDS011;2115;51.038;7.006;2022-12-05T11:48:49;516.30;;;116.90;;
4202;SDS011;2115;51.038;7.006;2022-12-05T11:56:46;518.80;;;118.50;;
4202;SDS011;2115;51.038;7.006;2022-12-05T11:59:25;523.77;;;120.43;;
4202;SDS011;2115;51.038;7.006;2022-12-05T12:07:30;530.53;;;122.27;;
4202;SDS011;2115;51.038;7.006;2022-12-05T12:12:54;525.20;;;120.67;;
4202;SDS011;2115;51.038;7.006;2022-12-05T12:24:10;529.53;;;122.60;;
4202;SDS011;2115;51.038;7.006;2022-12-05T12:29:59;534.10;;;121.80;;
4202;SDS011;2115;51.038;7.006;2022-12-05T12:33:04;529.70;;;120.67;;
4202;SDS011;2115;51.038;7.006;2022-12-05T12:35:35;525.67;;;116.93;;
4202;SDS011;2115;51.038;7.006;2022-12-05T12:40:58;524.83;;;117.70;;
4202;SDS011;2115;51.038;7.006;2022-12-05T12:49:37;522.07;;;116.70;;
4202;SDS011;2115;51.038;7.006;2022-12-05T12:51:42;524.80;;;117.83;;
4202;SDS011;2115;51.038;7.006;2022-12-05T13:03:01;491.23;;;108.10;;
4202;SDS011;2115;51.038;7.006;2022-12-05T13:08:38;489.17;;;107.17;;
4202;SDS011;2115;51.038;7.006;2022-12-05T13:11:02;482.27;;;106.23;;
4202;SDS011;2115;51.038;7.006;2022-12-05T13:13:35;480.10;;;105.10;;
4202;SDS011;2115;51.038;7.006;2022-12-05T13:16:04;480.47;;;104.57;;
4202;SDS011;2115;51.038;7.006;2022-12-05T13:18:32;476.97;;;104.17;;
4202;SDS011;2115;51.038;7.006;2022-12-05T13:20:58;479.97;;;107.20;;
4202;SDS011;2115;51.038;7.006;2022-12-05T13:23:25;483.27;;;108.00;;
4202;SDS011;2115;51.038;7.006;2022-12-05T13:25:53;475.37;;;104.57;;
4202;SDS011;2115;51.038;7.006;2022-12-05T13:30:54;478.80;;;106.20;;
4202;SDS011;2115;51.038;7.006;2022-12-05T13:33:26;481.80;;;107.00;;
4202;SDS011;2115;51.038;7.006;2022-12-05T13:35:55;482.93;;;106.63;;
4202;SDS011;2115;51.038;7.006;2022-12-05T13:38:40;488.50;;;106.23;;
4202;SDS011;2115;51.038;7.006;2022-12-05T13:41:40;482.73;;;105.63;;
4202;SDS011;2115;51.038;7.006;2022-12-05T13:44:27;482.60;;;105.47;;
4202;SDS011;2115;51.038;7.006;2022-12-05T13:46:57;441.07;;;96.80;;
4202;SDS011;2115;51.038;7.006;2022-12-05T13:49:31;481.50;;;105.87;;
4202;SDS011;2115;51.038;7.006;2022-12-05T13:52:12;495.40;;;107.30;;
4202;SDS011;2115;51.038;7.006;2022-12-05T13:54:47;486.83;;;106.37;;
4202;SDS011;2115;51.038;7.006;2022-12-05T14:10:13;483.80;;;106.60;;
4202;SDS011;2115;51.038;7.006;2022-12-05T14:15:28;481.10;;;106.53;;
4202;SDS011;2115;51.038;7.006;2022-12-05T14:37:32;485.80;;;109.00;;
4202;SDS011;2115;51.038;7.006;2022-12-05T14:40:00;499.43;;;113.27;;
4202;SDS011;2115;51.038;7.006;2022-12-05T14:42:34;489.07;;;108.30;;
4202;SDS011;2115;51.038;7.006;2022-12-05T14:47:50;484.50;;;106.90;;
4202;SDS011;2115;51.038;7.006;2022-12-05T14:58:36;479.20;;;105.07;;
4202;SDS011;2115;51.038;7.006;2022-12-05T15:01:05;474.43;;;103.33;;
4202;SDS011;2115;51.038;7.006;2022-12-05T15:03:54;480.07;;;105.87;;
4202;SDS011;2115;51.038;7.006;2022-12-05T15:06:27;476.23;;;105.77;;
4202;SDS011;2115;51.038;7.006;2022-12-05T15:08:54;476.73;;;105.60;;
4202;SDS011;2115;51.038;7.006;2022-12-05T15:11:22;475.17;;;105.07;;
4202;SDS011;2115;51.038;7.006;2022-12-05T15:13:55;472.87;;;104.60;;
4202;SDS011;2115;51.038;7.006;2022-12-05T15:16:24;475.57;;;104.67;;
4202;SDS011;2115;51.038;7.006;2022-12-05T15:18:53;484.83;;;104.80;;
4202;SDS011;2115;51.038;7.006;2022-12-05T15:21:28;482.53;;;106.97;;
4202;SDS011;2115;51.038;7.006;2022-12-05T15:24:01;477.27;;;105.23;;
4202;SDS011;2115;51.038;7.006;2022-12-05T15:26:41;475.57;;;105.40;;
4202;SDS011;2115;51.038;7.006;2022-12-05T15:31:37;477.87;;;106.80;;
4202;SDS011;2115;51.038;7.006;2022-12-05T15:34:52;476.70;;;103.60;;
4202;SDS011;2115;51.038;7.006;2022-12-05T15:37:12;474.87;;;105.30;;
4202;SDS011;2115;51.038;7.006;2022-12-05T15:39:49;469.47;;;103.10;;
4202;SDS011;2115;51.038;7.006;2022-12-05T15:42:16;473.53;;;105.80;;
4202;SDS011;2115;51.038;7.006;2022-12-05T15:44:41;473.73;;;105.43;;
4202;SDS011;2115;51.038;7.006;2022-12-05T15:47:20;472.60;;;104.17;;
4202;SDS011;2115;51.038;7.006;2022-12-05T15:49:47;468.27;;;104.13;;
4202;SDS011;2115;51.038;7.006;2022-12-05T15:52:20;472.83;;;106.10;;
4202;SDS011;2115;51.038;7.006;2022-12-05T15:55:12;470.10;;;102.67;;
4202;SDS011;2115;51.038;7.006;2022-12-05T15:57:41;473.77;;;105.30;;
4202;SDS011;2115;51.038;7.006;2022-12-05T16:00:14;477.77;;;106.20;;
4202;SDS011;2115;51.038;7.006;2022-12-05T16:05:18;473.10;;;104.50;;
4202;SDS011;2115;51.038;7.006;2022-12-05T16:08:04;471.23;;;102.77;;
4202;SDS011;2115;51.038;7.006;2022-12-05T16:10:30;475.97;;;103.50;;
4202;SDS011;2115;51.038;7.006;2022-12-05T16:13:00;475.50;;;105.03;;
4202;SDS011;2115;51.038;7.006;2022-12-05T16:15:27;474.60;;;104.43;;
4202;SDS011;2115;51.038;7.006;2022-12-05T16:17:57;475.93;;;104.80;;
4202;SDS011;2115;51.038;7.006;2022-12-05T16:20:27;474.20;;;104.57;;
4202;SDS011;2115;51.038;7.006;2022-12-05T16:22:54;481.50;;;107.97;;
4202;SDS011;2115;51.038;7.006;2022-12-05T16:25:28;475.10;;;105.30;;
4202;SDS011;2115;51.038;7.006;2022-12-05T16:30:35;481.77;;;107.60;;
4202;SDS011;2115;51.038;7.006;2022-12-05T16:33:05;488.53;;;109.70;;
4202;SDS011;2115;51.038;7.006;2022-12-05T16:35:34;485.30;;;109.53;;
4202;SDS011;2115;51.038;7.006;2022-12-05T16:45:47;486.07;;;109.90;;
4202;SDS011;2115;51.038;7.006;2022-12-05T16:50:47;481.17;;;106.37;;
4202;SDS011;2115;51.038;7.006;2022-12-05T16:53:14;486.03;;;109.43;;
4202;SDS011;2115;51.038;7.006;2022-12-05T16:55:42;485.07;;;108.27;;
4202;SDS011;2115;51.038;7.006;2022-12-05T16:58:15;486.63;;;109.67;;
4202;SDS011;2115;51.038;7.006;2022-12-05T17:00:44;491.07;;;110.17;;
4202;SDS011;2115;51.038;7.006;2022-12-05T17:03:12;483.47;;;107.57;;
4202;SDS011;2115;51.038;7.006;2022-12-05T17:05:38;489.10;;;110.33;;
4202;SDS011;2115;51.038;7.006;2022-12-05T17:08:04;488.40;;;110.87;;
4202;SDS011;2115;51.038;7.006;2022-12-05T17:10:29;492.20;;;108.10;;
4202;SDS011;2115;51.038;7.006;2022-12-05T17:12:54;494.20;;;111.43;;
4202;SDS011;2115;51.038;7.006;2022-12-05T17:15:20;491.77;;;110.20;;
4202;SDS011;2115;51.038;7.006;2022-12-05T17:17:46;493.10;;;111.00;;
4202;SDS011;2115;51.038;7.006;2022-12-05T17:20:11;491.67;;;110.57;;
4202;SDS011;2115;51.038;7.006;2022-12-05T17:22:38;489.47;;;110.03;;
4202;SDS011;2115;51.038;7.006;2022-12-05T17:25:49;524.23;;;124.50;;
4202;SDS011;2115;51.038;7.006;2022-12-05T17:27:55;493.97;;;110.27;;
4202;SDS011;2115;51.038;7.006;2022-12-05T17:30:21;492.83;;;109.33;;
4202;SDS011;2115;51.038;7.006;2022-12-05T17:32:47;506.23;;;114.10;;
4202;SDS011;2115;51.038;7.006;2022-12-05T17:35:16;493.07;;;109.83;;
4202;SDS011;2115;51.038;7.006;2022-12-05T17:37:42;500.77;;;112.30;;